Time;durP1;ratioP1;P1;durP2;ratioP2;P2;SDS_P1;SDS_P2;PMS_P1;PMS_P2;Temp;Humidity;BMP_temperature;BMP_pressure;BME280_temperature;BME280_humidity;BME280_pressure;Samples;Min_cycle;Max_cycle;Signal;HPM_P1;HPM_P2
2021/04/26 00:00:40;;;;;;;5.93;1.20;;;4.20;56.90;;;;;;5932712;39;20052;-70
2021/04/26 00:04:47;;;;;;;4.57;1.08;;;4.20;56.70;;;;;;5918499;40;20746;-70
2021/04/26 00:08:53;;;;;;;3.03;1.10;;;4.10;56.80;;;;;;5929992;39;20141;-70
2021/04/26 00:12:58;;;;;;;5.30;1.05;;;4.00;56.70;;;;;;5927677;40;20052;-70
2021/04/26 00:17:19;;;;;;;2.83;1.38;;;4.00;56.70;;;;;;5937853;40;20599;-70
2021/04/26 00:21:26;;;;;;;6.25;1.25;;;3.90;56.70;;;;;;5935479;40;20056;-70
2021/04/26 00:25:34;;;;;;;7.72;1.10;;;3.80;56.70;;;;;;5936964;40;20061;-70
2021/04/26 00:29:38;;;;;;;4.72;1.27;;;3.70;56.80;;;;;;5937981;40;20049;-70
2021/04/26 00:33:42;;;;;;;3.08;0.93;;;3.70;56.80;;;;;;5924052;40;20474;-70
2021/04/26 00:37:48;;;;;;;4.03;1.20;;;3.60;56.70;;;;;;5921204;40;20048;-70
2021/04/26 00:41:57;;;;;;;2.47;0.98;;;3.60;56.80;;;;;;5924410;40;20074;-71
2021/04/26 00:45:59;;;;;;;3.88;1.20;;;3.50;56.90;;;;;;5932742;40;20064;-70
2021/04/26 00:50:08;;;;;;;2.97;1.27;;;3.50;56.70;;;;;;5931442;40;20469;-69
2021/04/26 00:54:14;;;;;;;2.88;1.00;;;3.50;56.90;;;;;;5929003;40;20046;-69
2021/04/26 00:58:20;;;;;;;3.55;1.20;;;3.40;56.60;;;;;;5939132;39;20045;-70
2021/04/26 01:02:24;;;;;;;5.45;1.10;;;3.40;56.70;;;;;;5913968;40;20058;-69
2021/04/26 01:06:31;;;;;;;4.07;0.98;;;3.30;56.60;;;;;;5935976;40;20048;-71
2021/04/26 01:10:42;;;;;;;3.35;1.20;;;3.20;56.70;;;;;;5928883;40;20428;-70
2021/04/26 01:15:10;;;;;;;7.07;1.20;;;3.20;56.80;;;;;;5937433;40;20051;-70
2021/04/26 01:19:42;;;;;;;2.47;1.00;;;3.10;56.90;;;;;;5935500;40;20472;-70
2021/04/26 01:24:21;;;;;;;3.80;1.08;;;3.00;56.80;;;;;;5922248;40;20072;-70
2021/04/26 01:28:56;;;;;;;4.97;1.40;;;3.00;56.60;;;;;;5934099;40;20048;-70
2021/04/26 01:33:02;;;;;;;2.75;1.00;;;2.90;56.70;;;;;;5920159;40;20064;-71
2021/04/26 01:37:14;;;;;;;2.33;1.20;;;2.90;56.50;;;;;;5923599;40;20047;-71
2021/04/26 01:41:23;;;;;;;2.92;1.02;;;2.80;56.60;;;;;;5930356;39;20059;-71
2021/04/26 01:45:28;;;;;;;3.53;1.30;;;2.70;56.60;;;;;;5933325;40;20045;-70
2021/04/26 01:49:33;;;;;;;3.72;1.17;;;2.70;56.70;;;;;;5912445;40;20048;-69
2021/04/26 01:53:43;;;;;;;5.15;1.25;;;2.60;56.70;;;;;;5914722;40;20048;-70
2021/04/26 01:57:52;;;;;;;3.13;1.10;;;2.60;56.90;;;;;;5932833;40;20395;-70
2021/04/26 02:01:58;;;;;;;5.72;1.27;;;2.60;57.00;;;;;;5919203;40;20047;-70
2021/04/26 02:06:03;;;;;;;3.35;1.10;;;2.60;56.60;;;;;;5928543;40;20139;-70
2021/04/26 02:10:15;;;;;;;4.25;1.20;;;2.60;56.70;;;;;;5922462;40;20067;-70
2021/04/26 02:14:26;;;;;;;3.35;1.13;;;2.50;56.80;;;;;;5931645;40;20205;-70
2021/04/26 02:18:31;;;;;;;4.60;1.30;;;2.40;56.60;;;;;;5931394;40;20040;-70
2021/04/26 02:22:37;;;;;;;4.32;0.90;;;2.40;56.60;;;;;;5920247;40;20104;-69
2021/04/26 02:26:41;;;;;;;4.05;1.15;;;2.30;56.70;;;;;;5923641;40;20535;-69
2021/04/26 02:30:48;;;;;;;3.72;1.20;;;3.40;57.30;;;;;;5924325;40;20694;-70
2021/04/26 02:35:03;;;;;;;3.95;1.17;;;2.30;56.90;;;;;;5932972;40;20052;-70
2021/04/26 02:39:21;;;;;;;3.78;1.65;;;2.20;56.90;;;;;;5921118;40;20056;-69
2021/04/26 02:43:35;;;;;;;3.80;1.27;;;2.10;57.00;;;;;;5924876;40;20083;-70
2021/04/26 02:47:43;;;;;;;5.20;1.80;;;2.10;56.90;;;;;;5932238;39;20305;-69
2021/04/26 02:51:52;;;;;;;3.20;1.30;;;2.10;57.10;;;;;;5912648;40;20137;-69
2021/04/26 02:56:02;;;;;;;2.22;1.25;;;2.00;55.70;;;;;;5933139;40;20420;-69
2021/04/26 03:00:14;;;;;;;3.70;1.33;;;2.00;57.10;;;;;;5923712;40;20081;-69
2021/04/26 03:04:40;;;;;;;3.97;1.58;;;1.90;57.00;;;;;;5922792;40;20052;-69
2021/04/26 03:08:46;;;;;;;5.03;1.20;;;1.90;57.00;;;;;;5912508;40;20371;-69
2021/04/26 03:12:52;;;;;;;4.70;1.50;;;2.10;57.10;;;;;;5929741;40;20052;-70
2021/04/26 03:17:02;;;;;;;6.78;1.40;;;1.80;57.10;;;;;;5929797;40;20056;-70
2021/04/26 03:21:10;;;;;;;3.78;1.30;;;1.80;57.00;;;;;;5921038;40;20047;-70
2021/04/26 03:25:22;;;;;;;5.82;1.80;;;1.80;57.20;;;;;;5920570;40;20066;-69
2021/04/26 03:29:28;;;;;;;4.68;1.38;;;1.70;57.10;;;;;;5927246;40;20048;-68
2021/04/26 03:33:34;;;;;;;3.67;1.40;;;1.70;57.10;;;;;;5929604;40;20648;-69
2021/04/26 03:37:40;;;;;;;6.25;1.55;;;1.70;57.20;;;;;;5923046;39;20186;-69
2021/04/26 03:41:51;;;;;;;4.15;1.13;;;1.70;57.40;;;;;;5923595;40;20041;-69
2021/04/26 03:46:00;;;;;;;3.90;1.38;;;1.60;57.20;;;;;;5931731;40;20075;-70
2021/04/26 03:50:26;;;;;;;3.25;1.40;;;1.60;57.30;;;;;;5929367;39;20186;-69
2021/04/26 03:54:50;;;;;;;3.88;1.35;;;1.60;57.30;;;;;;5924562;40;20107;-70
2021/04/26 03:58:54;;;;;;;2.92;1.15;;;1.60;57.10;;;;;;5919633;40;20428;-70
2021/04/26 04:03:06;;;;;;;6.78;1.65;;;1.60;57.20;;;;;;5930575;40;20042;-70
2021/04/26 04:07:12;;;;;;;5.60;1.90;;;1.50;57.30;;;;;;5920803;40;20051;-70
2021/04/26 04:11:57;;;;;;;2.67;1.23;;;1.50;57.20;;;;;;5922303;40;20214;-70
2021/04/26 04:16:14;;;;;;;3.80;1.60;;;1.40;57.30;;;;;;5921998;40;20059;-70
2021/04/26 04:20:19;;;;;;;5.30;1.73;;;1.50;57.10;;;;;;5919403;40;20367;-69
2021/04/26 04:24:26;;;;;;;4.93;1.40;;;1.50;55.90;;;;;;5921910;40;20052;-69
2021/04/26 04:28:33;;;;;;;4.00;1.60;;;1.60;57.20;;;;;;5924606;40;20418;-70
2021/04/26 04:32:43;;;;;;;5.15;1.73;;;1.60;57.70;;;;;;5916664;40;20045;-70
2021/04/26 04:37:14;;;;;;;4.28;1.70;;;1.60;57.10;;;;;;5892669;39;20021;-70
2021/04/26 04:41:39;;;;;;;5.63;1.95;;;1.70;57.50;;;;;;5922973;40;20052;-70
2021/04/26 04:45:44;;;;;;;6.10;1.92;;;1.80;57.40;;;;;;5931555;40;20178;-70
2021/04/26 04:50:06;;;;;;;;;;;1.90;57.80;;;;;;5925281;40;20342;-69
2021/04/26 04:54:12;;;;;;;3.53;1.73;;;1.90;56.40;;;;;;5920352;40;20022;-69
2021/04/26 04:58:24;;;;;;;8.02;1.92;;;2.00;57.60;;;;;;5920593;39;20055;-69
2021/04/26 05:02:33;;;;;;;4.07;1.90;;;2.10;57.60;;;;;;5924528;40;20037;-69
2021/04/26 05:07:05;;;;;;;6.80;2.20;;;2.20;57.50;;;;;;5926211;40;20363;-69
2021/04/26 05:11:28;;;;;;;4.93;2.17;;;2.30;57.60;;;;;;5930749;40;20428;-69
2021/04/26 05:15:53;;;;;;;5.82;2.15;;;2.40;57.70;;;;;;5931689;40;20117;-69
2021/04/26 05:20:01;;;;;;;5.22;2.17;;;2.60;58.50;;;;;;5931562;39;20331;-69
2021/04/26 05:24:09;;;;;;;7.75;1.83;;;2.90;59.60;;;;;;5927434;40;20352;-69
2021/04/26 05:28:19;;;;;;;4.30;1.70;;;3.20;58.90;;;;;;5920764;40;20072;-69
2021/04/26 05:32:31;;;;;;;4.40;1.95;;;3.40;58.80;;;;;;5922032;40;20472;-69
2021/04/26 05:36:41;;;;;;;6.50;3.10;;;3.60;58.50;;;;;;5924595;40;20591;-69
2021/04/26 05:40:49;;;;;;;5.55;2.17;;;3.70;58.80;;;;;;5933144;40;20044;-69
2021/04/26 05:44:56;;;;;;;5.82;1.80;;;3.90;58.70;;;;;;5917131;40;20048;-70
2021/04/26 05:49:26;;;;;;;7.70;1.95;;;4.10;58.70;;;;;;5932815;40;20048;-70
2021/04/26 05:53:30;;;;;;;7.53;2.30;;;4.30;59.80;;;;;;5932825;40;20401;-70
2021/04/26 05:57:51;;;;;;;5.97;2.20;;;4.40;62.20;;;;;;5928347;40;20415;-69
2021/04/26 06:01:55;;;;;;;5.13;1.90;;;4.50;63.10;;;;;;5916326;40;20447;-69
2021/04/26 06:06:00;;;;;;;6.93;1.85;;;4.60;60.20;;;;;;5913988;40;20056;-69
2021/04/26 06:10:14;;;;;;;8.97;2.90;;;4.70;60.90;;;;;;5923441;40;20052;-71
2021/04/26 06:14:18;;;;;;;10.70;1.98;;;4.80;61.30;;;;;;5928855;40;20492;-73
2021/04/26 06:18:24;;;;;;;6.45;1.88;;;5.70;61.40;;;;;;5930637;40;20058;-73
2021/04/26 06:22:28;;;;;;;5.95;2.45;;;5.00;63.20;;;;;;5933019;40;20340;-72
2021/04/26 06:26:37;;;;;;;5.93;2.55;;;5.10;63.00;;;;;;5934363;40;20337;-72
2021/04/26 06:30:46;;;;;;;3.85;1.60;;;5.30;62.70;;;;;;5920724;40;20165;-72
2021/04/26 06:34:55;;;;;;;4.50;1.55;;;5.40;61.80;;;;;;5930306;40;20056;-72
2021/04/26 06:39:02;;;;;;;6.22;2.17;;;5.50;60.10;;;;;;5930201;40;20060;-72
2021/04/26 06:43:07;;;;;;;4.03;1.90;;;5.70;61.50;;;;;;5922453;40;20048;-72
2021/04/26 06:47:14;;;;;;;5.95;1.40;;;6.00;60.10;;;;;;5924275;40;20040;-72
2021/04/26 06:51:21;;;;;;;4.72;1.30;;;6.40;60.90;;;;;;5922134;40;20052;-72
2021/04/26 06:55:25;;;;;;;3.63;1.33;;;6.40;61.50;;;;;;5934136;40;20379;-72
2021/04/26 06:59:30;;;;;;;4.50;1.40;;;6.60;61.70;;;;;;5923576;40;20040;-72
2021/04/26 07:03:36;;;;;;;4.95;1.52;;;6.70;61.20;;;;;;5927873;40;20367;-72
2021/04/26 07:07:41;;;;;;;3.47;1.60;;;6.80;60.90;;;;;;5929358;40;20148;-72
2021/04/26 07:11:45;;;;;;;4.70;1.30;;;7.00;61.20;;;;;;5922306;40;20536;-72
2021/04/26 07:15:49;;;;;;;6.55;1.40;;;7.40;61.20;;;;;;5929577;40;20067;-72
2021/04/26 07:19:54;;;;;;;3.47;1.27;;;7.60;60.50;;;;;;5929966;40;20060;-72
2021/04/26 07:23:58;;;;;;;3.50;1.10;;;7.90;59.40;;;;;;5922921;40;20049;-72
2021/04/26 07:28:02;;;;;;;3.67;0.90;;;8.20;59.70;;;;;;5910507;40;20216;-73
2021/04/26 07:32:07;;;;;;;4.82;0.85;;;8.90;58.70;;;;;;5931401;40;20055;-72
2021/04/26 07:36:12;;;;;;;4.20;0.88;;;9.40;67.30;;;;;;5922481;40;20052;-72
2021/04/26 07:40:21;;;;;;;4.40;1.17;;;9.10;75.80;;;;;;5936063;40;20054;-73
2021/04/26 07:44:27;;;;;;;2.45;1.00;;;9.20;68.10;;;;;;5925505;40;20048;-73
2021/04/26 07:48:37;;;;;;;2.22;0.88;;;9.30;65.70;;;;;;5916550;39;20085;-73
2021/04/26 07:52:42;;;;;;;11.02;1.33;;;9.50;69.40;;;;;;5922549;40;20064;-73
2021/04/26 07:56:47;;;;;;;2.47;1.10;;;9.90;59.30;;;;;;5921526;40;20125;-73
2021/04/26 08:00:51;;;;;;;3.30;0.90;;;9.30;58.60;;;;;;5931032;40;20058;-73
2021/04/26 08:05:00;;;;;;;4.70;1.20;;;9.40;59.20;;;;;;5923669;40;20084;-72
2021/04/26 08:09:09;;;;;;;4.10;0.90;;;9.70;58.40;;;;;;5938730;39;20370;-73
2021/04/26 08:13:16;;;;;;;5.53;0.82;;;10.00;56.80;;;;;;5936292;40;20055;-73
2021/04/26 08:17:23;;;;;;;5.18;0.80;;;9.90;55.60;;;;;;5922408;40;20593;-73
2021/04/26 08:21:27;;;;;;;3.30;1.30;;;10.00;55.90;;;;;;5923953;40;20068;-73
2021/04/26 08:25:32;;;;;;;4.45;1.10;;;9.80;56.10;;;;;;5922380;40;20441;-73
2021/04/26 08:29:36;;;;;;;5.22;1.17;;;10.20;55.70;;;;;;5929973;39;20068;-73
2021/04/26 08:33:41;;;;;;;4.13;0.88;;;10.40;55.60;;;;;;5922024;40;20064;-68
2021/04/26 08:37:45;;;;;;;2.60;0.85;;;10.60;55.70;;;;;;5929092;39;20040;-68
2021/04/26 08:41:52;;;;;;;2.55;1.23;;;10.70;57.50;;;;;;5925899;40;20517;-69
2021/04/26 08:46:01;;;;;;;2.97;1.23;;;10.50;58.40;;;;;;5928106;40;20422;-67
2021/04/26 08:50:08;;;;;;;3.88;1.00;;;10.40;58.50;;;;;;5921647;40;20331;-68
2021/04/26 08:54:17;;;;;;;2.38;1.00;;;10.50;58.30;;;;;;5931668;40;20055;-68
2021/04/26 08:58:29;;;;;;;2.95;1.05;;;10.50;57.20;;;;;;5926449;39;20044;-68
2021/04/26 09:02:58;;;;;;;2.22;0.90;;;10.50;58.40;;;;;;5918547;40;20343;-68
2021/04/26 09:07:10;;;;;;;2.55;0.88;;;11.10;57.90;;;;;;5932835;40;20301;-68
2021/04/26 09:11:17;;;;;;;5.60;1.30;;;11.30;56.30;;;;;;5925793;40;20251;-71
2021/04/26 09:15:22;;;;;;;2.92;1.08;;;11.40;56.30;;;;;;5929450;40;20154;-67
2021/04/26 09:19:31;;;;;;;3.40;1.17;;;11.60;57.20;;;;;;5927383;40;20457;-68
2021/04/26 09:23:38;;;;;;;5.18;1.27;;;11.30;57.80;;;;;;5921767;40;20060;-69
2021/04/26 09:27:59;;;;;;;3.25;0.90;;;11.00;57.70;;;;;;5933589;40;20035;-70
2021/04/26 09:32:08;;;;;;;3.08;1.00;;;10.60;58.40;;;;;;5918490;40;20082;-67
2021/04/26 09:36:30;;;;;;;1.73;0.82;;;10.80;58.10;;;;;;5920240;40;20053;-67
2021/04/26 09:40:35;;;;;;;2.63;1.52;;;10.50;58.90;;;;;;5915721;40;20052;-69
2021/04/26 09:44:46;;;;;;;4.65;1.25;;;10.00;59.20;;;;;;5917235;40;20416;-68
2021/04/26 09:48:51;;;;;;;4.25;1.05;;;10.30;61.00;;;;;;5922786;40;20064;-68
2021/04/26 09:53:11;;;;;;;4.72;1.30;;;10.30;60.50;;;;;;5919094;40;20064;-70
2021/04/26 09:57:23;;;;;;;6.47;2.13;;;10.30;61.10;;;;;;5922798;40;20044;-69
2021/04/26 10:01:28;;;;;;;3.15;0.82;;;10.30;59.90;;;;;;5936085;40;20044;-69
2021/04/26 10:05:35;;;;;;;5.18;1.20;;;10.20;60.10;;;;;;5925561;40;20076;-69
2021/04/26 10:09:45;;;;;;;5.03;1.05;;;9.90;60.30;;;;;;5933249;39;20459;-70
2021/04/26 10:13:58;;;;;;;5.60;1.13;;;10.60;60.20;;;;;;5932518;40;20044;-68
2021/04/26 10:18:08;;;;;;;1.92;1.00;;;10.10;59.60;;;;;;5924290;39;20395;-67
2021/04/26 10:22:14;;;;;;;6.72;1.30;;;10.00;59.40;;;;;;5916978;40;20069;-69
2021/04/26 10:27:00;;;;;;;6.03;1.40;;;11.00;60.20;;;;;;5920468;40;20032;-67
2021/04/26 10:31:13;;;;;;;4.00;1.25;;;9.80;59.60;;;;;;5923794;40;20399;-67
2021/04/26 10:35:19;;;;;;;2.97;0.90;;;9.60;60.80;;;;;;5916626;40;20064;-69
2021/04/26 10:39:26;;;;;;;3.00;1.05;;;9.50;62.10;;;;;;5927466;40;20156;-70
2021/04/26 10:43:32;;;;;;;3.45;0.98;;;9.40;60.70;;;;;;5932883;40;20432;-69
2021/04/26 10:47:41;;;;;;;2.95;0.90;;;9.40;60.40;;;;;;5930925;39;20075;-68
2021/04/26 10:51:49;;;;;;;3.63;1.10;;;9.60;58.70;;;;;;5927921;40;20051;-67
2021/04/26 10:55:54;;;;;;;4.20;1.00;;;9.30;59.20;;;;;;5931008;40;20090;-67
2021/04/26 11:00:21;;;;;;;8.18;1.40;;;9.40;60.40;;;;;;5930540;40;20061;-70
2021/04/26 11:04:25;;;;;;;9.25;2.03;;;9.70;60.00;;;;;;5911591;40;20067;-70
2021/04/26 11:12:53;;;;;;;4.75;1.20;;;10.10;59.00;;;;;;5924415;40;20405;-70
2021/04/26 11:17:03;;;;;;;2.10;0.90;;;10.00;59.30;;;;;;5926832;40;20083;-71
2021/04/26 11:21:09;;;;;;;4.68;1.10;;;9.90;58.40;;;;;;5926678;40;20044;-69
2021/04/26 11:25:35;;;;;;;4.47;0.80;;;9.70;59.50;;;;;;5926654;40;21948;-68
2021/04/26 11:29:47;;;;;;;3.97;0.80;;;9.80;60.40;;;;;;5926600;40;20386;-67
2021/04/26 11:33:54;;;;;;;5.47;1.63;;;9.90;58.70;;;;;;5920557;40;20044;-68
2021/04/26 11:38:02;;;;;;;3.60;0.90;;;9.90;59.70;;;;;;5916281;39;20045;-68
2021/04/26 11:42:07;;;;;;;2.63;1.00;;;9.80;59.10;;;;;;5925264;40;20055;-69
2021/04/26 11:46:21;;;;;;;6.28;1.00;;;10.00;60.20;;;;;;5924087;40;20064;-69
2021/04/26 11:50:26;;;;;;;5.53;0.88;;;9.70;59.40;;;;;;5915293;40;20060;-68
2021/04/26 11:54:30;;;;;;;2.78;0.95;;;9.80;61.20;;;;;;5919529;40;20268;-67
2021/04/26 11:58:34;;;;;;;4.75;1.00;;;9.70;60.20;;;;;;5925958;40;20060;-68
2021/04/26 12:02:49;;;;;;;4.00;0.88;;;9.60;62.70;;;;;;5917593;40;20056;-69
2021/04/26 12:06:53;;;;;;;2.67;0.98;;;9.60;64.90;;;;;;5916405;40;20071;-68
2021/04/26 12:10:59;;;;;;;2.42;0.88;;;9.70;69.60;;;;;;5924731;40;20048;-68
2021/04/26 12:15:11;;;;;;;1.95;1.00;;;9.40;68.30;;;;;;5918161;40;20068;-68
2021/04/26 12:19:12;;;;;;;4.03;0.93;;;9.40;67.70;;;;;;5916743;40;20463;-68
2021/04/26 12:23:28;;;;;;;3.72;1.38;;;9.70;62.80;;;;;;5915753;40;20060;-67
2021/04/26 12:27:32;;;;;;;3.50;1.20;;;9.90;63.80;;;;;;5915554;39;20040;-68
2021/04/26 12:31:39;;;;;;;3.33;1.05;;;9.80;66.70;;;;;;5915559;40;20063;-67
2021/04/26 12:35:44;;;;;;;4.43;0.82;;;9.60;67.10;;;;;;5919924;40;20062;-68
2021/04/26 12:39:51;;;;;;;3.97;1.25;;;9.60;66.80;;;;;;5925472;40;20513;-68
2021/04/26 12:44:02;;;;;;;2.30;1.13;;;9.60;66.70;;;;;;5922476;40;20048;-67
2021/04/26 12:48:13;;;;;;;3.85;1.25;;;9.40;67.00;;;;;;5925485;40;20284;-68
2021/04/26 12:52:19;;;;;;;3.22;1.20;;;9.40;65.60;;;;;;5915339;40;20063;-68
2021/04/26 12:56:25;;;;;;;1.98;1.00;;;9.30;66.50;;;;;;5925501;40;20045;-67
2021/04/26 13:00:44;;;;;;;1.65;0.70;;;9.30;66.40;;;;;;5930278;40;20049;-68
2021/04/26 13:04:50;;;;;;;6.00;1.05;;;9.20;65.90;;;;;;5915947;40;20068;-68
2021/04/26 13:08:58;;;;;;;7.30;1.83;;;9.30;66.30;;;;;;5918798;39;20056;-68
2021/04/26 13:13:03;;;;;;;6.38;1.20;;;9.40;66.20;;;;;;5913229;40;20071;-68
2021/04/26 13:17:12;;;;;;;4.15;1.08;;;9.50;65.00;;;;;;5916896;39;20059;-68
2021/04/26 13:21:17;;;;;;;2.22;0.90;;;9.60;64.00;;;;;;5920909;40;20447;-68
2021/04/26 13:25:33;;;;;;;1.85;0.75;;;9.80;64.10;;;;;;5915693;40;20073;-66
2021/04/26 13:29:40;;;;;;;4.95;0.88;;;9.90;62.90;;;;;;5914119;40;20554;-68
2021/04/26 13:33:48;;;;;;;5.18;1.02;;;9.60;63.00;;;;;;5912177;40;20048;-67
2021/04/26 13:37:57;;;;;;;5.38;1.17;;;9.70;63.50;;;;;;5915751;40;20473;-68
2021/04/26 13:42:06;;;;;;;2.97;1.15;;;9.50;62.20;;;;;;5928612;40;20139;-66
2021/04/26 13:46:10;;;;;;;2.35;0.88;;;9.60;61.90;;;;;;5931995;40;20052;-68
2021/04/26 13:50:17;;;;;;;3.55;1.00;;;9.50;62.20;;;;;;5914533;40;20052;-67
2021/04/26 13:54:21;;;;;;;6.75;1.13;;;9.60;61.90;;;;;;5929078;40;20047;-67
2021/04/26 13:58:48;;;;;;;4.20;1.00;;;10.00;61.90;;;;;;5927747;40;20289;-68
2021/04/26 14:02:52;;;;;;;6.90;1.10;;;9.90;61.50;;;;;;5927735;40;20425;-68
2021/04/26 14:07:05;;;;;;;4.28;0.70;;;10.00;60.20;;;;;;5932304;40;20056;-68
2021/04/26 14:11:11;;;;;;;2.28;0.88;;;10.20;60.20;;;;;;5927842;40;20313;-68
2021/04/26 14:15:16;;;;;;;1.75;1.00;;;10.20;59.80;;;;;;5918655;40;20068;-68
2021/04/26 14:19:21;;;;;;;5.75;1.33;;;10.20;60.20;;;;;;5920239;40;20135;-68
2021/04/26 14:23:27;;;;;;;9.20;1.15;;;10.20;61.20;;;;;;5914757;40;20063;-68
2021/04/26 14:27:31;;;;;;;2.20;1.10;;;10.40;60.20;;;;;;5931653;40;20119;-67
2021/04/26 14:31:35;;;;;;;2.63;1.03;;;10.40;59.80;;;;;;5927438;40;20103;-68
2021/04/26 14:35:42;;;;;;;3.55;1.20;;;11.00;60.70;;;;;;5927206;40;20155;-68
2021/04/26 14:39:49;;;;;;;5.25;1.00;;;10.40;59.10;;;;;;5921963;39;20041;-68
2021/04/26 14:43:53;;;;;;;3.20;1.20;;;10.30;59.10;;;;;;5912982;40;20059;-69
2021/04/26 14:48:04;;;;;;;2.13;0.80;;;10.20;59.60;;;;;;5913374;40;20053;-68
2021/04/26 14:52:08;;;;;;;4.70;0.93;;;10.00;59.60;;;;;;5915905;40;20132;-67
2021/04/26 14:56:13;;;;;;;4.00;1.13;;;9.90;58.80;;;;;;5924549;40;20421;-67
2021/04/26 15:00:15;;;;;;;3.00;1.10;;;9.90;60.10;;;;;;5916941;40;20196;-68
2021/04/26 15:04:20;;;;;;;3.30;1.58;;;9.90;59.10;;;;;;5928365;40;20052;-68
2021/04/26 15:08:26;;;;;;;4.10;1.20;;;9.90;59.50;;;;;;5914546;39;20122;-68
2021/04/26 15:12:31;;;;;;;3.42;1.15;;;9.70;59.20;;;;;;5909007;40;20044;-68
2021/04/26 15:16:35;;;;;;;3.33;1.20;;;9.30;59.30;;;;;;5916945;40;20502;-67
2021/04/26 15:20:40;;;;;;;3.67;1.15;;;9.30;59.90;;;;;;5926280;40;20051;-70
2021/04/26 15:24:47;;;;;;;2.75;0.98;;;9.40;60.40;;;;;;5922116;40;20048;-70
2021/04/26 15:28:54;;;;;;;4.55;1.25;;;9.50;60.00;;;;;;5924769;40;20064;-70
2021/04/26 15:33:02;;;;;;;3.55;1.38;;;9.30;59.60;;;;;;5916540;40;20052;-70
2021/04/26 15:37:09;;;;;;;3.47;1.10;;;8.60;59.60;;;;;;5919021;40;20036;-67
2021/04/26 15:41:14;;;;;;;4.55;1.00;;;9.40;60.70;;;;;;5918206;40;20260;-67
2021/04/26 15:45:24;;;;;;;3.30;1.10;;;7.90;59.40;;;;;;5924596;40;20141;-67
2021/04/26 15:49:30;;;;;;;3.92;1.13;;;9.10;60.10;;;;;;5928349;40;20044;-69
2021/04/26 15:53:34;;;;;;;4.55;1.10;;;9.00;59.70;;;;;;5927520;40;20064;-68
2021/04/26 15:57:41;;;;;;;3.60;1.08;;;9.00;59.30;;;;;;5922390;40;20127;-68
2021/04/26 16:01:47;;;;;;;4.93;1.10;;;8.80;59.80;;;;;;5929164;40;20052;-68
2021/04/26 16:05:53;;;;;;;3.15;1.10;;;8.90;59.40;;;;;;5925861;40;20464;-67
2021/04/26 16:10:00;;;;;;;4.97;1.40;;;8.90;59.10;;;;;;5931786;40;20052;-68
2021/04/26 16:14:04;;;;;;;1.88;1.10;;;9.00;58.40;;;;;;5924190;40;20432;-67
2021/04/26 16:18:12;;;;;;;3.00;1.10;;;9.10;57.20;;;;;;5927153;40;20084;-67
2021/04/26 16:22:17;;;;;;;2.60;0.98;;;9.00;56.90;;;;;;5929604;40;20052;-67
2021/04/26 16:26:21;;;;;;;2.45;0.75;;;9.10;56.80;;;;;;5922845;40;20499;-68
2021/04/26 16:30:25;;;;;;;4.97;1.00;;;8.90;56.60;;;;;;5925910;40;20040;-68
2021/04/26 16:34:30;;;;;;;4.40;0.90;;;9.10;57.20;;;;;;5927604;40;20365;-67
2021/04/26 16:38:39;;;;;;;6.85;1.08;;;9.10;57.10;;;;;;5926077;40;20726;-71
2021/04/26 16:42:44;;;;;;;2.47;0.90;;;8.90;56.60;;;;;;5915642;40;20383;-70
2021/04/26 16:46:49;;;;;;;2.40;0.70;;;8.80;56.80;;;;;;5908418;40;20064;-70
2021/04/26 16:50:54;;;;;;;3.97;0.80;;;8.80;56.50;;;;;;5922116;39;20328;-70
2021/04/26 16:54:59;;;;;;;4.18;1.00;;;8.80;56.50;;;;;;5917682;40;20421;-70
2021/04/26 16:59:05;;;;;;;3.38;0.90;;;8.70;56.00;;;;;;5921725;40;20048;-68
2021/04/26 17:03:10;;;;;;;3.92;0.88;;;8.70;56.10;;;;;;5917738;40;20048;-67
2021/04/26 17:07:14;;;;;;;2.78;0.65;;;8.70;55.80;;;;;;5927691;40;20092;-70
2021/04/26 17:11:18;;;;;;;2.08;0.52;;;8.60;55.90;;;;;;5928238;40;20064;-70
2021/04/26 17:15:22;;;;;;;3.42;1.10;;;8.60;55.80;;;;;;5922599;40;20461;-70
2021/04/26 17:19:34;;;;;;;2.97;0.70;;;8.50;56.10;;;;;;5931795;39;20064;-70
2021/04/26 17:23:38;;;;;;;4.25;1.02;;;8.70;56.30;;;;;;5917290;40;20049;-69
2021/04/26 17:27:45;;;;;;;2.20;0.80;;;8.50;56.30;;;;;;5928970;40;20037;-70
2021/04/26 17:31:53;;;;;;;4.10;1.13;;;8.40;56.60;;;;;;5918565;40;20033;-69
2021/04/26 17:36:01;;;;;;;5.07;2.63;;;8.40;56.80;;;;;;5928428;40;20060;-68
2021/04/26 17:40:07;;;;;;;3.22;1.08;;;8.40;56.40;;;;;;5918440;40;20041;-70
2021/04/26 17:44:12;;;;;;;2.70;1.00;;;8.40;55.90;;;;;;5921003;40;20056;-68
2021/04/26 17:48:16;;;;;;;2.60;1.10;;;8.40;55.60;;;;;;5910246;40;20071;-68
2021/04/26 17:52:23;;;;;;;2.67;1.30;;;8.30;55.80;;;;;;5908563;40;20528;-67
2021/04/26 17:56:32;;;;;;;4.18;1.20;;;8.30;55.50;;;;;;5927436;40;20047;-67
2021/04/26 18:00:37;;;;;;;3.53;1.05;;;8.10;55.50;;;;;;5924293;40;20130;-68
2021/04/26 18:04:42;;;;;;;3.72;1.30;;;8.20;55.50;;;;;;5908826;40;21035;-67
2021/04/26 18:08:57;;;;;;;4.15;1.20;;;8.10;56.50;;;;;;5859757;40;20773;-68
2021/04/26 18:13:04;;;;;;;2.85;1.17;;;8.00;55.80;;;;;;5916082;40;20135;-68
2021/04/26 18:17:10;;;;;;;3.58;1.10;;;7.90;56.10;;;;;;5927953;39;20060;-67
2021/04/26 18:21:12;;;;;;;4.65;1.30;;;7.90;56.10;;;;;;5924971;40;20076;-70
2021/04/26 18:25:17;;;;;;;6.70;1.30;;;7.80;56.30;;;;;;5917238;40;20043;-70
2021/04/26 18:29:21;;;;;;;2.80;1.30;;;7.80;57.20;;;;;;5919455;40;20052;-70
2021/04/26 18:33:25;;;;;;;3.35;1.30;;;7.70;58.10;;;;;;5926240;40;20045;-70
2021/04/26 18:37:29;;;;;;;3.45;1.42;;;7.60;59.10;;;;;;5927446;39;20073;-70
2021/04/26 18:41:36;;;;;;;7.95;1.70;;;7.80;60.00;;;;;;5924946;40;20137;-70
2021/04/26 18:45:42;;;;;;;3.45;1.50;;;7.80;60.40;;;;;;5927387;40;20542;-70
2021/04/26 18:49:47;;;;;;;3.13;1.45;;;7.50;60.90;;;;;;5922256;40;20052;-69
2021/04/26 18:53:53;;;;;;;5.47;2.08;;;7.50;61.80;;;;;;5921282;40;20569;-68
2021/04/26 18:58:02;;;;;;;7.72;1.80;;;7.50;65.10;;;;;;5915469;40;20060;-69
2021/04/26 19:02:06;;;;;;;6.68;1.30;;;7.40;67.00;;;;;;5920641;40;20659;-71
2021/04/26 19:06:11;;;;;;;4.18;1.80;;;7.40;66.00;;;;;;5920755;40;20458;-70
2021/04/26 19:10:15;;;;;;;6.13;1.58;;;7.30;62.80;;;;;;5909814;40;20506;-69
2021/04/26 19:14:22;;;;;;;4.53;1.83;;;7.30;62.90;;;;;;5932162;40;20413;-69
2021/04/26 19:18:29;;;;;;;4.90;1.80;;;7.10;63.60;;;;;;5919463;40;20057;-70
2021/04/26 19:22:36;;;;;;;5.78;1.90;;;7.10;64.10;;;;;;5932123;40;20060;-70
2021/04/26 19:26:45;;;;;;;5.55;1.55;;;7.10;67.10;;;;;;5933954;39;20055;-70
2021/04/26 19:30:50;;;;;;;6.78;2.05;;;7.00;67.40;;;;;;5921675;40;20134;-71
2021/04/26 19:34:55;;;;;;;5.00;1.80;;;6.90;72.60;;;;;;5931098;40;20396;-71
2021/04/26 19:39:04;;;;;;;7.45;1.95;;;6.90;71.10;;;;;;5916215;40;20073;-70
2021/04/26 19:43:11;;;;;;;3.63;1.92;;;6.80;72.90;;;;;;5923469;40;20049;-70
2021/04/26 19:47:16;;;;;;;6.93;2.03;;;6.70;69.70;;;;;;5927954;39;20084;-69
2021/04/26 19:51:20;;;;;;;3.88;1.90;;;6.70;70.00;;;;;;5932455;40;20350;-69
2021/04/26 19:55:25;;;;;;;5.95;2.30;;;6.60;70.00;;;;;;5928556;40;20127;-69
2021/04/26 19:59:29;;;;;;;7.15;2.33;;;6.40;69.80;;;;;;5921079;40;20048;-70
2021/04/26 20:03:34;;;;;;;3.90;2.10;;;6.60;70.10;;;;;;5927528;40;20138;-69
2021/04/26 20:07:38;;;;;;;5.90;2.60;;;6.40;71.60;;;;;;5933347;40;20052;-70
2021/04/26 20:11:43;;;;;;;27.02;3.13;;;6.40;75.60;;;;;;5934811;40;20068;-71
2021/04/26 20:15:51;;;;;;;8.20;2.50;;;6.30;74.90;;;;;;5931532;40;20056;-70
2021/04/26 20:19:57;;;;;;;7.63;2.95;;;6.30;75.50;;;;;;5933750;39;20561;-70
2021/04/26 20:24:01;;;;;;;3.50;2.00;;;6.20;77.30;;;;;;5915814;40;20056;-70
2021/04/26 20:28:06;;;;;;;6.18;2.65;;;6.20;77.10;;;;;;5931607;40;20048;-70
2021/04/26 20:32:12;;;;;;;4.32;2.53;;;6.20;78.80;;;;;;5933448;40;20075;-70
2021/04/26 20:36:19;;;;;;;5.32;2.50;;;6.10;81.70;;;;;;5933647;40;20507;-69
2021/04/26 20:40:27;;;;;;;4.93;3.20;;;6.00;86.20;;;;;;5934124;40;20059;-69
2021/04/26 20:44:34;;;;;;;32.03;24.98;;;5.90;86.00;;;;;;5917671;40;20060;-70
2021/04/26 20:48:39;;;;;;;8.90;7.20;;;5.90;90.10;;;;;;5935918;40;20400;-70
2021/04/26 20:52:49;;;;;;;8.60;2.88;;;5.80;85.90;;;;;;5936765;40;20418;-70
2021/04/26 20:56:55;;;;;;;7.65;2.53;;;5.90;87.10;;;;;;5922825;40;20049;-69
2021/04/26 21:01:00;;;;;;;4.68;2.50;;;5.70;79.70;;;;;;5924215;40;20459;-69
2021/04/26 21:05:05;;;;;;;3.35;1.83;;;5.70;68.90;;;;;;5925874;40;20088;-70
2021/04/26 21:09:11;;;;;;;6.60;2.10;;;5.50;86.70;;;;;;5933440;40;20369;-69
2021/04/26 21:13:15;;;;;;;5.18;1.48;;;5.60;67.70;;;;;;5926975;40;20064;-69
2021/04/26 21:17:19;;;;;;;3.55;2.05;;;5.40;72.10;;;;;;5926410;40;20048;-69
2021/04/26 21:21:35;;;;;;;4.43;1.42;;;5.50;65.20;;;;;;5924308;40;20082;-69
2021/04/26 21:25:41;;;;;;;5.38;1.50;;;5.40;62.80;;;;;;5935701;40;20355;-70
2021/04/26 21:29:46;;;;;;;5.68;1.58;;;5.40;62.40;;;;;;5932512;40;20048;-70
2021/04/26 21:33:50;;;;;;;4.93;1.60;;;5.50;60.80;;;;;;5932561;40;20084;-70
2021/04/26 21:37:54;;;;;;;4.63;1.48;;;6.60;61.20;;;;;;5931480;39;20378;-69
2021/04/26 21:41:59;;;;;;;5.30;1.70;;;5.40;60.00;;;;;;5925036;40;20075;-71
2021/04/26 21:46:06;;;;;;;3.25;1.10;;;5.40;61.40;;;;;;5921718;40;20095;-70
2021/04/26 21:50:13;;;;;;;2.35;1.30;;;5.20;61.20;;;;;;5921816;40;20119;-69